Nashville, TN

11:15 CST le 26 novembre 2014 (GMT -0600)
Green Hills | Change Station
CLOSE
Current Station
Stations météorologiques personnelles
Location: Nashville, TN
Altitude: 699 ft
Stations météo à proximité

Alt. 699 ft 36.09 °N, 86.83 °W | Updated 6 minutes ago

Partiellement nuageux
Partiellement nuageux
43.6 ° F
Paraît 44 ° F
N
0.0
Vent Variable Vent de NO
Gusts 0.0 mph

Aujourd'hui
Haut(e) -- | Bas -- ° F
--% Risque de précip.
Hier
Haut(e) -- | Bas -- ° F
Precip. -- pouce
6:34 AM 4:33 PM
Lune montante, 21% visible
Pression 30.16 pouce
Visibilité 10.0 Miles terrestres
Nuages Peu 20000 ft
Nuages épars 25000 ft
Refroidissement éolien 44 ° F
Point de rosée 26 ° F
Humidité 50%
Précipitations 0.00 pouce
Profondeur de la couche neigeuse Non disponible.
UV 3 sur 12
Pollen .10 sur 12
Qualité de l'air Non disponible.
Flu Activity Non disponible.
METAR KBNA 261653Z 00000KT 10SM FEW200 SCT250 07/M04 A3015 RMK AO2 SLP212 T00671039

More Conditions Fewer Conditions

Pression 30.16 pouce
Visibilité 10.0 Miles terrestres
Nuages Peu 20000 ft
Nuages épars 25000 ft
Refroidissement éolien 44 ° F
Point de rosée 26 ° F
Humidité 50%
Précipitations 0.00 pouce
Profondeur de la couche neigeuse Non disponible.
UV 3 sur 12
Pollen .10 sur 12
Qualité de l'air Non disponible.
Flu Activity Non disponible.
METAR KBNA 261653Z 00000KT 10SM FEW200 SCT250 07/M04 A3015 RMK AO2 SLP212 T00671039

More Conditions Fewer Conditions

10-Day Weather Forecast

Almanac

Astronomie

Nov. 26, 2014 Lever Coucher
Temps réel
Crépuscule civil
Crépuscule nautique
Crépuscule astronomique
Lune
Durée de lumière visible
Longueur du jour
Tomorrow will be .
, % of the Moon is Illuminated

Extrêmes aujourd'hui

State Highs State Lows

Community

WunderPhotos

Upload Photos

1,773,800 Photos téléchargées !

WunderBlogs® & News

Nearby

Qualité de l'air

  Qualité de l'air Indice de la qualité de l'air Polluant
Not available.

Épaisseur de neige

Station Depth Altitude

Activité sismique

Ville Distance Mag. Time & Date
Minimum magnitude displayed is 2.5.

Températures des eaux côtières

Lieu Température

Stations météo à proximité